sensor_id;sensor_type;location;lat;lon;timestamp;pressure;altitude;pressure_sealevel;temperature;humidity
66762;BME280;77357;47.660;16.282;2024-03-22T00:00:29;94976.53;;;9.06;65.46
66762;BME280;77357;47.660;16.282;2024-03-22T00:05:32;94975.44;;;9.07;65.21
66762;BME280;77357;47.660;16.282;2024-03-22T00:10:34;94974.34;;;9.08;65.88
66762;BME280;77357;47.660;16.282;2024-03-22T00:15:36;94974.31;;;9.13;65.10
66762;BME280;77357;47.660;16.282;2024-03-22T00:20:40;94973.22;;;9.09;65.74
66762;BME280;77357;47.660;16.282;2024-03-22T00:25:42;94977.59;;;9.15;66.26
66762;BME280;77357;47.660;16.282;2024-03-22T00:30:43;94986.13;;;8.75;67.75
66762;BME280;77357;47.660;16.282;2024-03-22T00:35:47;94985.59;;;9.02;66.48
66762;BME280;77357;47.660;16.282;2024-03-22T00:40:49;94987.47;;;8.77;67.87
66762;BME280;77357;47.660;16.282;2024-03-22T00:45:51;94975.88;;;8.90;66.99
66762;BME280;77357;47.660;16.282;2024-03-22T00:50:54;94970.34;;;8.95;67.15
66762;BME280;77357;47.660;16.282;2024-03-22T00:55:56;94978.56;;;8.95;66.90
66762;BME280;77357;47.660;16.282;2024-03-22T01:00:59;94972.13;;;8.81;67.84
66762;BME280;77357;47.660;16.282;2024-03-22T01:06:03;94975.06;;;8.90;66.95
66762;BME280;77357;47.660;16.282;2024-03-22T01:11:04;94983.88;;;8.82;67.96
66762;BME280;77357;47.660;16.282;2024-03-22T01:16:06;94982.28;;;8.76;68.11
66762;BME280;77357;47.660;16.282;2024-03-22T01:21:11;94984.38;;;8.89;66.85
66762;BME280;77357;47.660;16.282;2024-03-22T01:26:13;94989.50;;;8.95;67.07
66762;BME280;77357;47.660;16.282;2024-03-22T01:31:15;94989.38;;;8.77;67.34
66762;BME280;77357;47.660;16.282;2024-03-22T01:36:19;94997.69;;;8.95;67.93
66762;BME280;77357;47.660;16.282;2024-03-22T01:41:20;94987.31;;;8.92;67.50
66762;BME280;77357;47.660;16.282;2024-03-22T01:46:22;94989.88;;;8.84;67.67
66762;BME280;77357;47.660;16.282;2024-03-22T01:51:26;94979.75;;;8.84;67.61
66762;BME280;77357;47.660;16.282;2024-03-22T01:56:28;94976.06;;;8.65;68.73
66762;BME280;77357;47.660;16.282;2024-03-22T02:01:30;94973.47;;;8.84;66.96
66762;BME280;77357;47.660;16.282;2024-03-22T02:06:34;94975.09;;;8.85;67.71
66762;BME280;77357;47.660;16.282;2024-03-22T02:11:36;94974.50;;;8.88;66.54
66762;BME280;77357;47.660;16.282;2024-03-22T02:16:39;94964.16;;;8.85;67.50
66762;BME280;77357;47.660;16.282;2024-03-22T02:21:43;94968.66;;;9.00;66.02
66762;BME280;77357;47.660;16.282;2024-03-22T02:26:46;94961.25;;;9.05;66.10
66762;BME280;77357;47.660;16.282;2024-03-22T02:31:48;94956.28;;;9.12;65.62
66762;BME280;77357;47.660;16.282;2024-03-22T02:36:50;94947.03;;;9.03;65.08
66762;BME280;77357;47.660;16.282;2024-03-22T02:41:53;94949.47;;;9.05;65.30
66762;BME280;77357;47.660;16.282;2024-03-22T02:46:55;94948.75;;;8.99;65.30
66762;BME280;77357;47.660;16.282;2024-03-22T02:51:57;94936.22;;;8.88;65.92
66762;BME280;77357;47.660;16.282;2024-03-22T02:57:00;94948.25;;;8.92;65.04
66762;BME280;77357;47.660;16.282;2024-03-22T03:02:02;94948.81;;;8.89;65.10
66762;BME280;77357;47.660;16.282;2024-03-22T03:07:04;94947.72;;;8.90;66.04
66762;BME280;77357;47.660;16.282;2024-03-22T03:12:11;94940.09;;;8.87;65.79
66762;BME280;77357;47.660;16.282;2024-03-22T03:17:13;94944.25;;;8.79;65.68
66762;BME280;77357;47.660;16.282;2024-03-22T03:22:15;94940.13;;;8.82;66.06
66762;BME280;77357;47.660;16.282;2024-03-22T03:27:18;94932.06;;;8.95;65.70
66762;BME280;77357;47.660;16.282;2024-03-22T03:32:20;94933.47;;;8.93;65.25
66762;BME280;77357;47.660;16.282;2024-03-22T03:37:22;94924.72;;;8.91;65.63
66762;BME280;77357;47.660;16.282;2024-03-22T03:42:25;94924.03;;;9.04;64.62
66762;BME280;77357;47.660;16.282;2024-03-22T03:47:27;94932.41;;;8.89;65.65
66762;BME280;77357;47.660;16.282;2024-03-22T03:52:29;94938.69;;;8.89;65.96
66762;BME280;77357;47.660;16.282;2024-03-22T03:57:32;94939.56;;;8.85;65.80
66762;BME280;77357;47.660;16.282;2024-03-22T04:02:34;94945.66;;;8.72;66.50
66762;BME280;77357;47.660;16.282;2024-03-22T04:07:36;94932.72;;;8.87;64.40
66762;BME280;77357;47.660;16.282;2024-03-22T04:12:41;94922.00;;;8.62;65.73
66762;BME280;77357;47.660;16.282;2024-03-22T04:17:42;94924.97;;;8.66;65.80
66762;BME280;77357;47.660;16.282;2024-03-22T04:22:44;94919.69;;;8.74;64.84
66762;BME280;77357;47.660;16.282;2024-03-22T04:27:48;94920.22;;;8.43;65.57
66762;BME280;77357;47.660;16.282;2024-03-22T04:32:50;94915.59;;;8.43;66.13
66762;BME280;77357;47.660;16.282;2024-03-22T04:37:51;94907.59;;;8.52;65.88
66762;BME280;77357;47.660;16.282;2024-03-22T04:42:55;94910.00;;;8.24;66.56
66762;BME280;77357;47.660;16.282;2024-03-22T04:47:57;94898.31;;;8.53;65.55
66762;BME280;77357;47.660;16.282;2024-03-22T04:52:59;94901.22;;;8.28;66.38
66762;BME280;77357;47.660;16.282;2024-03-22T04:58:02;94897.34;;;8.34;66.83
66762;BME280;77357;47.660;16.282;2024-03-22T05:03:04;94906.88;;;8.70;64.91
66762;BME280;77357;47.660;16.282;2024-03-22T05:08:06;94908.72;;;8.51;65.25
66762;BME280;77357;47.660;16.282;2024-03-22T05:13:10;94899.56;;;8.32;66.65
66762;BME280;77357;47.660;16.282;2024-03-22T05:18:12;94902.56;;;8.64;64.77
66762;BME280;77357;47.660;16.282;2024-03-22T05:23:13;94899.53;;;8.65;63.91
66762;BME280;77357;47.660;16.282;2024-03-22T05:28:18;94895.59;;;8.76;62.94
66762;BME280;77357;47.660;16.282;2024-03-22T05:33:20;94888.19;;;8.82;62.79
66762;BME280;77357;47.660;16.282;2024-03-22T05:38:21;94901.06;;;9.05;61.99
66762;BME280;77357;47.660;16.282;2024-03-22T05:43:25;94899.31;;;8.90;62.98
66762;BME280;77357;47.660;16.282;2024-03-22T05:48:27;94891.19;;;9.09;62.22
66762;BME280;77357;47.660;16.282;2024-03-22T05:53:29;94889.53;;;9.37;60.83
66762;BME280;77357;47.660;16.282;2024-03-22T05:58:32;94896.16;;;9.54;60.92
66762;BME280;77357;47.660;16.282;2024-03-22T06:03:35;94896.34;;;9.63;60.56
66762;BME280;77357;47.660;16.282;2024-03-22T06:08:37;94902.34;;;9.65;59.91
66762;BME280;77357;47.660;16.282;2024-03-22T06:13:41;94899.84;;;10.06;59.01
66762;BME280;77357;47.660;16.282;2024-03-22T06:18:43;94894.69;;;10.23;58.32
66762;BME280;77357;47.660;16.282;2024-03-22T06:23:45;94886.88;;;11.27;54.32
66762;BME280;77357;47.660;16.282;2024-03-22T06:28:48;94890.25;;;12.05;51.72
66762;BME280;77357;47.660;16.282;2024-03-22T06:33:50;94878.28;;;12.23;51.07
66762;BME280;77357;47.660;16.282;2024-03-22T06:38:52;94878.31;;;12.45;49.50
66762;BME280;77357;47.660;16.282;2024-03-22T06:43:56;94877.69;;;12.93;46.69
66762;BME280;77357;47.660;16.282;2024-03-22T06:48:58;94878.72;;;12.03;48.77
66762;BME280;77357;47.660;16.282;2024-03-22T06:54:00;94894.53;;;11.70;49.84
66762;BME280;77357;47.660;16.282;2024-03-22T06:59:03;94882.66;;;11.97;50.34
66762;BME280;77357;47.660;16.282;2024-03-22T07:04:05;94889.72;;;11.22;51.50
66762;BME280;77357;47.660;16.282;2024-03-22T07:09:07;94890.03;;;12.02;50.22
66762;BME280;77357;47.660;16.282;2024-03-22T07:14:10;94872.41;;;12.38;48.61
66762;BME280;77357;47.660;16.282;2024-03-22T07:19:12;94885.66;;;13.03;46.60
66762;BME280;77357;47.660;16.282;2024-03-22T07:24:14;94882.22;;;13.20;45.50
66762;BME280;77357;47.660;16.282;2024-03-22T07:29:17;94878.09;;;14.52;43.33
66762;BME280;77357;47.660;16.282;2024-03-22T07:34:20;94880.84;;;14.86;40.88
66762;BME280;77357;47.660;16.282;2024-03-22T07:39:22;94877.31;;;14.86;41.23
66762;BME280;77357;47.660;16.282;2024-03-22T07:44:25;94885.88;;;13.76;42.98
66762;BME280;77357;47.660;16.282;2024-03-22T07:49:29;94884.88;;;14.20;42.22
66762;BME280;77357;47.660;16.282;2024-03-22T07:54:32;94889.50;;;13.46;43.09
66762;BME280;77357;47.660;16.282;2024-03-22T07:59:35;94891.38;;;14.41;41.35
66762;BME280;77357;47.660;16.282;2024-03-22T08:04:37;94877.47;;;14.81;41.13
66762;BME280;77357;47.660;16.282;2024-03-22T08:09:39;94885.84;;;14.16;42.40
66762;BME280;77357;47.660;16.282;2024-03-22T08:14:42;94882.25;;;13.50;43.86
66762;BME280;77357;47.660;16.282;2024-03-22T08:19:44;94874.66;;;14.12;41.25
66762;BME280;77357;47.660;16.282;2024-03-22T08:24:47;94871.25;;;13.59;42.90
66762;BME280;77357;47.660;16.282;2024-03-22T08:29:51;94860.59;;;13.35;43.44
66762;BME280;77357;47.660;16.282;2024-03-22T08:34:52;94871.06;;;14.03;41.75
66762;BME280;77357;47.660;16.282;2024-03-22T08:39:54;94869.13;;;14.38;40.72
66762;BME280;77357;47.660;16.282;2024-03-22T08:44:58;94888.28;;;14.43;40.48
66762;BME280;77357;47.660;16.282;2024-03-22T08:50:00;94884.16;;;13.98;41.69
66762;BME280;77357;47.660;16.282;2024-03-22T08:55:02;94879.53;;;13.67;40.18
66762;BME280;77357;47.660;16.282;2024-03-22T09:00:07;94889.41;;;14.08;38.34
66762;BME280;77357;47.660;16.282;2024-03-22T09:05:09;94880.72;;;13.36;40.85
66762;BME280;77357;47.660;16.282;2024-03-22T09:10:11;94886.91;;;13.19;39.51
66762;BME280;77357;47.660;16.282;2024-03-22T09:15:15;94882.03;;;13.95;38.96
66762;BME280;77357;47.660;16.282;2024-03-22T09:20:17;94882.38;;;13.93;39.11
66762;BME280;77357;47.660;16.282;2024-03-22T09:25:19;94880.56;;;14.53;38.24
66762;BME280;77357;47.660;16.282;2024-03-22T09:30:22;94873.72;;;14.85;36.74
66762;BME280;77357;47.660;16.282;2024-03-22T09:35:24;94875.00;;;14.45;36.54
66762;BME280;77357;47.660;16.282;2024-03-22T09:40:27;94865.75;;;14.32;34.43
66762;BME280;77357;47.660;16.282;2024-03-22T09:45:31;94866.75;;;14.62;36.96
66762;BME280;77357;47.660;16.282;2024-03-22T09:50:35;94849.38;;;14.70;36.92
66762;BME280;77357;47.660;16.282;2024-03-22T09:55:37;94842.44;;;14.47;37.68
66762;BME280;77357;47.660;16.282;2024-03-22T10:00:41;94840.72;;;14.29;38.65
66762;BME280;77357;47.660;16.282;2024-03-22T10:05:43;94839.66;;;14.47;38.25
66762;BME280;77357;47.660;16.282;2024-03-22T10:10:45;94828.59;;;14.64;37.55
66762;BME280;77357;47.660;16.282;2024-03-22T10:15:49;94813.00;;;14.17;38.28
66762;BME280;77357;47.660;16.282;2024-03-22T10:20:59;94821.63;;;14.58;38.20
66762;BME280;77357;47.660;16.282;2024-03-22T10:26:01;94824.69;;;14.39;38.95
66762;BME280;77357;47.660;16.282;2024-03-22T10:31:05;94823.72;;;14.78;39.89
66762;BME280;77357;47.660;16.282;2024-03-22T10:36:08;94826.00;;;14.76;37.72
66762;BME280;77357;47.660;16.282;2024-03-22T10:41:11;94817.66;;;14.93;38.50
66762;BME280;77357;47.660;16.282;2024-03-22T10:46:16;94812.50;;;14.83;37.30
66762;BME280;77357;47.660;16.282;2024-03-22T10:51:21;94807.06;;;15.12;37.57
66762;BME280;77357;47.660;16.282;2024-03-22T10:56:25;94802.59;;;15.75;36.78
66762;BME280;77357;47.660;16.282;2024-03-22T11:01:31;94793.50;;;15.74;35.93
66762;BME280;77357;47.660;16.282;2024-03-22T11:06:37;94789.34;;;15.60;35.57
66762;BME280;77357;47.660;16.282;2024-03-22T11:11:41;94786.63;;;15.43;35.09
66762;BME280;77357;47.660;16.282;2024-03-22T11:16:45;94784.34;;;15.53;35.39
66762;BME280;77357;47.660;16.282;2024-03-22T11:21:47;94783.34;;;15.49;35.10
66762;BME280;77357;47.660;16.282;2024-03-22T11:26:49;94766.94;;;15.82;34.05
66762;BME280;77357;47.660;16.282;2024-03-22T11:31:52;94768.25;;;15.47;34.97
66762;BME280;77357;47.660;16.282;2024-03-22T11:36:54;94769.91;;;15.77;35.09
66762;BME280;77357;47.660;16.282;2024-03-22T11:41:56;94753.22;;;15.65;34.64
66762;BME280;77357;47.660;16.282;2024-03-22T11:46:59;94761.97;;;15.67;34.13
66762;BME280;77357;47.660;16.282;2024-03-22T11:52:02;94757.19;;;15.47;32.45
66762;BME280;77357;47.660;16.282;2024-03-22T11:57:04;94738.59;;;15.85;33.29
66762;BME280;77357;47.660;16.282;2024-03-22T12:02:09;94731.53;;;15.96;33.40
66762;BME280;77357;47.660;16.282;2024-03-22T12:07:13;94717.28;;;15.65;34.00
66762;BME280;77357;47.660;16.282;2024-03-22T12:12:15;94710.28;;;15.30;31.98
66762;BME280;77357;47.660;16.282;2024-03-22T12:17:19;94697.81;;;15.82;33.07
66762;BME280;77357;47.660;16.282;2024-03-22T12:22:21;94686.59;;;15.58;33.29
66762;BME280;77357;47.660;16.282;2024-03-22T12:27:26;94685.78;;;15.78;33.61
66762;BME280;77357;47.660;16.282;2024-03-22T12:32:29;94690.88;;;15.47;33.61
66762;BME280;77357;47.660;16.282;2024-03-22T12:37:32;94677.84;;;15.56;32.91
66762;BME280;77357;47.660;16.282;2024-03-22T12:42:34;94675.19;;;15.80;32.89
66762;BME280;77357;47.660;16.282;2024-03-22T12:47:37;94673.13;;;15.98;31.41
66762;BME280;77357;47.660;16.282;2024-03-22T12:52:39;94669.06;;;15.95;32.94
66762;BME280;77357;47.660;16.282;2024-03-22T12:57:42;94679.25;;;15.62;33.36
66762;BME280;77357;47.660;16.282;2024-03-22T13:02:49;94678.78;;;15.60;33.12
66762;BME280;77357;47.660;16.282;2024-03-22T13:07:51;94663.22;;;15.76;33.67
66762;BME280;77357;47.660;16.282;2024-03-22T13:12:52;94664.38;;;15.54;33.32
66762;BME280;77357;47.660;16.282;2024-03-22T13:17:56;94655.25;;;15.54;34.23
66762;BME280;77357;47.660;16.282;2024-03-22T13:22:58;94656.56;;;15.48;33.64
66762;BME280;77357;47.660;16.282;2024-03-22T13:28:00;94641.09;;;15.76;33.10
66762;BME280;77357;47.660;16.282;2024-03-22T13:33:04;94644.38;;;15.49;32.62
66762;BME280;77357;47.660;16.282;2024-03-22T13:38:08;94624.84;;;15.54;33.38
66762;BME280;77357;47.660;16.282;2024-03-22T13:43:13;94615.00;;;15.65;32.68
66762;BME280;77357;47.660;16.282;2024-03-22T13:48:17;94609.22;;;15.58;35.38
66762;BME280;77357;47.660;16.282;2024-03-22T13:53:19;94602.91;;;15.49;32.28
66762;BME280;77357;47.660;16.282;2024-03-22T13:58:23;94599.78;;;15.59;31.88
66762;BME280;77357;47.660;16.282;2024-03-22T14:03:26;94594.88;;;15.14;30.95
66762;BME280;77357;47.660;16.282;2024-03-22T14:08:28;94596.78;;;15.22;32.22
66762;BME280;77357;47.660;16.282;2024-03-22T14:13:30;94579.88;;;15.65;32.00
66762;BME280;77357;47.660;16.282;2024-03-22T14:18:35;94571.78;;;15.40;31.96
66762;BME280;77357;47.660;16.282;2024-03-22T14:23:37;94565.78;;;15.17;30.19
66762;BME280;77357;47.660;16.282;2024-03-22T14:28:41;94569.56;;;15.33;30.50
66762;BME280;77357;47.660;16.282;2024-03-22T14:33:44;94551.34;;;15.11;33.11
66762;BME280;77357;47.660;16.282;2024-03-22T14:38:47;94550.69;;;15.35;31.93
66762;BME280;77357;47.660;16.282;2024-03-22T14:43:49;94541.00;;;15.08;30.61
66762;BME280;77357;47.660;16.282;2024-03-22T14:48:53;94535.19;;;15.01;32.53
66762;BME280;77357;47.660;16.282;2024-03-22T14:53:55;94531.16;;;15.19;32.67
66762;BME280;77357;47.660;16.282;2024-03-22T14:58:57;94528.03;;;15.00;31.05
66762;BME280;77357;47.660;16.282;2024-03-22T15:04:03;94530.81;;;15.00;31.45
66762;BME280;77357;47.660;16.282;2024-03-22T15:09:06;94543.81;;;14.41;41.79
66762;BME280;77357;47.660;16.282;2024-03-22T15:14:11;94533.66;;;14.25;43.56
66762;BME280;77357;47.660;16.282;2024-03-22T15:19:15;94537.31;;;14.00;44.94
66762;BME280;77357;47.660;16.282;2024-03-22T15:24:17;94531.16;;;14.03;46.38
66762;BME280;77357;47.660;16.282;2024-03-22T15:29:19;94533.34;;;14.18;45.93
66762;BME280;77357;47.660;16.282;2024-03-22T15:34:23;94525.06;;;14.26;46.30
66762;BME280;77357;47.660;16.282;2024-03-22T15:39:25;94524.41;;;14.21;45.23
66762;BME280;77357;47.660;16.282;2024-03-22T15:44:27;94521.31;;;14.31;45.21
66762;BME280;77357;47.660;16.282;2024-03-22T15:49:30;94525.06;;;14.18;45.98
66762;BME280;77357;47.660;16.282;2024-03-22T15:54:32;94513.13;;;14.05;46.17
66762;BME280;77357;47.660;16.282;2024-03-22T15:59:34;94511.28;;;13.80;47.83
66762;BME280;77357;47.660;16.282;2024-03-22T16:04:37;94504.31;;;13.82;46.97
66762;BME280;77357;47.660;16.282;2024-03-22T16:09:39;94502.91;;;13.42;48.39
66762;BME280;77357;47.660;16.282;2024-03-22T16:14:41;94507.25;;;13.60;48.75
66762;BME280;77357;47.660;16.282;2024-03-22T16:19:45;94515.25;;;12.93;49.89
66762;BME280;77357;47.660;16.282;2024-03-22T16:24:47;94503.25;;;12.89;49.89
66762;BME280;77357;47.660;16.282;2024-03-22T16:29:49;94495.81;;;13.07;50.23
66762;BME280;77357;47.660;16.282;2024-03-22T16:34:52;94494.19;;;12.97;50.71
66762;BME280;77357;47.660;16.282;2024-03-22T16:39:54;94492.56;;;12.88;51.10
66762;BME280;77357;47.660;16.282;2024-03-22T16:44:56;94482.19;;;12.85;50.17
66762;BME280;77357;47.660;16.282;2024-03-22T16:49:59;94488.19;;;12.70;51.21
66762;BME280;77357;47.660;16.282;2024-03-22T16:55:01;94494.09;;;12.29;52.47
66762;BME280;77357;47.660;16.282;2024-03-22T17:00:04;94480.31;;;12.20;52.17
66762;BME280;77357;47.660;16.282;2024-03-22T17:05:10;94476.81;;;12.37;51.48
66762;BME280;77357;47.660;16.282;2024-03-22T17:10:11;94468.91;;;11.96;52.95
66762;BME280;77357;47.660;16.282;2024-03-22T17:15:15;94480.94;;;12.09;52.64
66762;BME280;77357;47.660;16.282;2024-03-22T17:20:19;94473.50;;;12.09;52.22
66762;BME280;77357;47.660;16.282;2024-03-22T17:25:20;94470.69;;;11.92;52.20
66762;BME280;77357;47.660;16.282;2024-03-22T17:30:23;94468.56;;;11.89;52.47
66762;BME280;77357;47.660;16.282;2024-03-22T17:35:27;94461.88;;;11.73;52.76
66762;BME280;77357;47.660;16.282;2024-03-22T17:40:29;94469.41;;;11.59;53.79
66762;BME280;77357;47.660;16.282;2024-03-22T17:45:31;94471.53;;;11.62;53.02
66762;BME280;77357;47.660;16.282;2024-03-22T17:50:34;94480.38;;;11.59;53.07
66762;BME280;77357;47.660;16.282;2024-03-22T17:55:36;94476.25;;;11.39;53.74
66762;BME280;77357;47.660;16.282;2024-03-22T18:00:39;94475.31;;;11.22;54.33
66762;BME280;77357;47.660;16.282;2024-03-22T18:05:42;94470.09;;;11.12;55.01
66762;BME280;77357;47.660;16.282;2024-03-22T18:10:44;94473.97;;;11.11;54.95
66762;BME280;77357;47.660;16.282;2024-03-22T18:15:46;94469.63;;;11.10;54.80
66762;BME280;77357;47.660;16.282;2024-03-22T18:20:49;94468.84;;;11.18;54.47
66762;BME280;77357;47.660;16.282;2024-03-22T18:25:52;94457.69;;;11.14;54.97
66762;BME280;77357;47.660;16.282;2024-03-22T18:31:00;94465.94;;;11.14;54.86
66762;BME280;77357;47.660;16.282;2024-03-22T18:36:04;94464.63;;;11.12;55.04
66762;BME280;77357;47.660;16.282;2024-03-22T18:41:06;94455.31;;;10.99;55.53
66762;BME280;77357;47.660;16.282;2024-03-22T18:46:08;94445.22;;;10.86;56.15
66762;BME280;77357;47.660;16.282;2024-03-22T18:51:12;94443.03;;;10.74;56.78
66762;BME280;77357;47.660;16.282;2024-03-22T18:56:14;94434.69;;;10.08;58.62
66762;BME280;77357;47.660;16.282;2024-03-22T19:01:16;94439.91;;;9.69;60.77
66762;BME280;77357;47.660;16.282;2024-03-22T19:06:20;94435.63;;;9.90;60.01
66762;BME280;77357;47.660;16.282;2024-03-22T19:11:22;94432.50;;;9.83;59.65
66762;BME280;77357;47.660;16.282;2024-03-22T19:16:24;94431.81;;;10.26;58.39
66762;BME280;77357;47.660;16.282;2024-03-22T19:21:28;94414.81;;;10.16;58.95
66762;BME280;77357;47.660;16.282;2024-03-22T19:26:31;94421.28;;;10.20;58.95
66762;BME280;77357;47.660;16.282;2024-03-22T19:31:33;94414.63;;;9.99;58.94
66762;BME280;77357;47.660;16.282;2024-03-22T19:36:38;94412.50;;;9.96;58.67
66762;BME280;77357;47.660;16.282;2024-03-22T19:41:40;94408.59;;;9.75;58.95
66762;BME280;77357;47.660;16.282;2024-03-22T19:46:42;94404.94;;;9.38;60.08
66762;BME280;77357;47.660;16.282;2024-03-22T19:51:46;94396.53;;;9.48;59.49
66762;BME280;77357;47.660;16.282;2024-03-22T19:56:48;94386.41;;;9.35;60.76
66762;BME280;77357;47.660;16.282;2024-03-22T20:01:49;94385.25;;;9.63;58.12
66762;BME280;77357;47.660;16.282;2024-03-22T20:06:54;94380.09;;;9.48;58.79
66762;BME280;77357;47.660;16.282;2024-03-22T20:11:56;94377.47;;;9.57;57.64
66762;BME280;77357;47.660;16.282;2024-03-22T20:16:58;94375.38;;;9.40;58.78
66762;BME280;77357;47.660;16.282;2024-03-22T20:22:01;94367.31;;;9.57;58.44
66762;BME280;77357;47.660;16.282;2024-03-22T20:27:04;94369.78;;;8.86;60.61
66762;BME280;77357;47.660;16.282;2024-03-22T20:32:06;94372.41;;;8.77;61.07
